createdAt,value
2023-05-10T18:35:11.252Z,18.68
2023-05-10T18:36:12.231Z,18.72
2023-05-10T18:37:12.181Z,18.78
2023-05-10T18:38:12.158Z,18.78
2023-05-10T18:39:12.164Z,18.76
2023-05-10T18:40:12.171Z,18.69
2023-05-10T18:41:12.159Z,18.66
2023-05-10T18:42:12.141Z,18.60
2023-05-10T18:43:12.104Z,18.51
2023-05-10T18:44:12.103Z,18.42
2023-05-10T19:25:46.010Z,17.06
2023-05-10T19:25:51.519Z,16.72
2023-05-10T19:26:51.566Z,16.50
2023-05-10T19:27:51.620Z,16.34
2023-05-10T19:29:08.966Z,16.16
2023-05-10T19:29:51.455Z,15.98
2023-05-10T19:30:51.487Z,15.85
2023-05-10T19:31:51.555Z,15.71
2023-05-10T19:32:51.518Z,15.62
2023-05-10T19:33:51.466Z,15.53
2023-05-10T19:34:51.446Z,15.43
2023-05-10T19:35:51.466Z,15.34
2023-05-10T19:36:51.407Z,15.27
2023-05-10T19:37:52.621Z,15.16
2023-05-10T19:38:51.523Z,15.12
2023-05-10T19:39:51.402Z,15.05
2023-05-10T19:40:51.520Z,15.00
2023-05-10T19:41:51.652Z,14.97
2023-05-10T19:42:51.365Z,14.90
2023-05-10T19:43:51.923Z,14.85
2023-05-10T19:44:51.517Z,14.82
2023-05-10T19:45:51.326Z,14.78
2023-05-10T19:46:51.387Z,14.75
2023-05-10T19:52:54.199Z,14.71
2023-05-10T20:02:13.281Z,14.53
2023-05-10T20:02:36.466Z,14.31
2023-05-10T20:03:23.764Z,14.30
2023-05-10T20:04:24.621Z,14.30
2023-05-10T20:05:23.630Z,14.27
2023-05-10T20:06:23.647Z,14.23
2023-05-10T20:07:23.558Z,14.23
2023-05-10T20:08:23.760Z,14.19
2023-05-10T20:09:23.510Z,14.17
2023-05-10T20:10:25.207Z,14.13
2023-05-10T20:11:23.559Z,14.11
2023-05-10T20:12:23.539Z,14.09
2023-05-10T20:13:23.493Z,14.08
2023-05-10T20:14:23.500Z,14.08
2023-05-10T20:15:23.490Z,14.06
2023-05-10T20:16:25.876Z,14.05
2023-05-10T20:17:23.514Z,14.04
2023-05-10T20:18:23.557Z,14.01
2023-05-10T20:19:23.420Z,14.01
2023-05-10T20:20:23.414Z,13.96
2023-05-10T20:21:23.408Z,13.94
2023-05-10T20:22:23.400Z,13.93
2023-05-10T20:23:23.377Z,13.93
2023-05-10T20:24:23.557Z,13.88
2023-05-10T20:25:23.440Z,13.90
2023-05-10T20:26:23.378Z,13.86
2023-05-10T20:27:23.635Z,13.83
2023-05-10T20:28:23.354Z,13.83
2023-05-10T20:29:23.316Z,13.81
2023-05-10T20:30:25.689Z,13.79
2023-05-10T20:31:27.946Z,13.75
2023-05-10T20:32:24.979Z,13.76
2023-05-10T20:33:23.313Z,13.75
2023-05-10T20:34:23.266Z,13.75
2023-05-10T20:35:23.262Z,13.73
2023-05-10T20:36:23.813Z,13.73
2023-05-10T20:37:23.272Z,13.73
2023-05-10T20:38:23.234Z,13.71
2023-05-10T20:39:23.209Z,13.73
2023-05-10T20:40:23.221Z,13.71
2023-05-10T20:41:23.213Z,13.72
2023-05-10T20:42:23.217Z,13.73
2023-05-10T20:43:23.578Z,13.72
2023-05-10T20:44:32.093Z,13.72
2023-05-10T20:45:23.212Z,13.75
2023-05-10T20:46:23.285Z,13.72
2023-05-10T20:47:28.106Z,13.72
2023-05-10T20:48:25.879Z,13.71
2023-05-10T20:49:23.211Z,13.71
2023-05-10T20:51:30.930Z,13.71
2023-05-10T20:51:42.901Z,13.69
2023-05-10T20:52:42.155Z,13.69
2023-05-10T20:53:37.396Z,13.66
2023-05-10T20:54:41.030Z,13.66
2023-05-10T20:55:38.199Z,13.63
2023-05-10T20:56:39.960Z,13.63
2023-05-10T20:57:36.509Z,13.62
2023-05-10T20:58:45.959Z,13.61
2023-05-10T20:59:36.395Z,13.62
2023-05-10T21:00:37.140Z,13.61
2023-05-10T21:27:50.098Z,13.41
2023-05-10T21:28:49.611Z,13.43
2023-05-10T21:29:50.057Z,13.38
2023-05-10T21:30:49.522Z,13.38
2023-05-10T21:31:49.606Z,13.43
2023-05-10T21:32:49.566Z,13.39
2023-05-10T21:33:49.946Z,13.41
2023-05-10T21:34:49.516Z,13.41
2023-05-10T21:35:50.650Z,13.39
2023-05-10T21:36:49.480Z,13.41
2023-05-10T21:37:51.002Z,13.39
2023-05-10T21:38:50.615Z,13.41
2023-05-10T21:39:50.654Z,13.41
2023-05-10T21:40:49.471Z,13.41
2023-05-10T21:41:51.076Z,13.43
2023-05-10T21:44:00.319Z,13.46
2023-05-10T21:45:06.440Z,13.44
2023-05-10T21:46:01.347Z,13.46
2023-05-10T21:47:01.247Z,13.44
2023-05-10T21:48:01.238Z,13.47
2023-05-10T21:49:01.253Z,13.47
2023-05-10T21:50:01.206Z,13.46
2023-05-10T21:51:01.179Z,13.48
2023-05-10T21:52:01.216Z,13.50
2023-05-10T21:53:01.156Z,13.47
2023-05-10T21:54:01.198Z,13.50
2023-05-10T21:55:01.138Z,13.51
2023-05-10T21:56:01.151Z,13.51
2023-05-10T21:57:01.116Z,13.53
2023-05-10T21:58:01.137Z,13.53
2023-05-10T21:59:01.129Z,13.54
2023-05-10T22:00:01.113Z,13.54
2023-05-10T22:01:01.209Z,13.55
2023-05-10T22:02:01.209Z,13.55
2023-05-10T22:03:08.595Z,13.55
2023-05-10T22:04:01.062Z,13.55
2023-05-10T22:05:01.136Z,13.57
2023-05-10T22:06:01.519Z,13.57
2023-05-10T22:07:04.312Z,13.57
2023-05-10T22:08:01.050Z,13.57
2023-05-10T22:09:01.610Z,13.61
2023-05-10T22:10:01.073Z,13.59
2023-05-10T22:11:02.697Z,13.61
2023-05-10T22:12:01.019Z,13.62
2023-05-10T22:13:02.627Z,13.63
2023-05-10T22:14:04.203Z,13.61
2023-05-10T22:15:10.478Z,13.62
2023-05-10T22:16:00.910Z,13.61
2023-05-10T22:17:05.469Z,13.62
2023-05-10T22:18:00.917Z,13.62
2023-05-10T22:19:01.732Z,13.63
2023-05-10T22:20:00.958Z,13.62
2023-05-10T22:21:15.522Z,13.63
2023-05-10T22:22:00.894Z,13.63
2023-05-10T22:23:00.888Z,13.63
2023-05-10T22:24:00.859Z,13.65
2023-05-10T22:25:00.819Z,13.65
2023-05-10T22:26:00.832Z,13.63
2023-05-10T22:27:00.798Z,13.63
2023-05-10T22:28:02.847Z,13.65
2023-05-10T22:29:00.772Z,13.63
2023-05-10T22:30:00.756Z,13.65
2023-05-10T22:31:00.752Z,13.63
2023-05-10T22:32:00.744Z,13.66
2023-05-10T22:33:00.736Z,13.63
2023-05-10T22:34:00.739Z,13.65
2023-05-10T22:35:00.818Z,13.66
2023-05-10T22:36:00.688Z,13.65
2023-05-10T22:37:00.661Z,13.65
2023-05-10T22:38:00.680Z,13.65
2023-05-10T22:39:00.706Z,13.63
2023-05-10T22:40:00.685Z,13.65
2023-05-10T22:41:06.317Z,13.65
2023-05-10T22:56:56.778Z,13.65
2023-05-10T22:57:58.610Z,13.63
2023-05-10T22:58:57.744Z,13.63
2023-05-10T22:59:57.745Z,13.63
2023-05-10T23:00:57.689Z,13.62
2023-05-10T23:01:57.745Z,13.62
2023-05-10T23:02:57.699Z,13.61
2023-05-10T23:03:57.657Z,13.61
2023-05-10T23:04:57.689Z,13.61
2023-05-10T23:05:57.615Z,13.57
2023-05-10T23:06:57.621Z,13.57
2023-05-10T23:07:57.622Z,13.57
2023-05-10T23:08:57.604Z,13.57
2023-05-10T23:09:57.594Z,13.59
2023-05-10T23:10:57.583Z,13.57
2023-05-10T23:11:57.650Z,13.55
2023-05-10T23:12:57.577Z,13.57
2023-05-10T23:13:57.588Z,13.54
2023-05-10T23:14:57.770Z,13.54
2023-05-10T23:15:57.743Z,13.51
2023-05-10T23:16:57.633Z,13.55
2023-05-10T23:17:57.598Z,13.51
2023-05-10T23:18:57.581Z,13.53
2023-05-10T23:19:57.483Z,13.50
2023-05-10T23:20:57.470Z,13.51
2023-05-10T23:21:57.535Z,13.50
2023-05-10T23:22:57.452Z,13.50
2023-05-10T23:23:57.511Z,13.51
2023-05-10T23:24:57.500Z,13.46
2023-05-10T23:25:57.437Z,13.48
2023-05-10T23:26:57.430Z,13.47
2023-05-10T23:27:57.503Z,13.44
2023-05-10T23:28:57.380Z,13.46
2023-05-10T23:29:57.384Z,13.44
2023-05-10T23:30:57.386Z,13.46
2023-05-10T23:31:57.442Z,13.44
2023-05-10T23:33:04.319Z,13.44
2023-05-10T23:33:57.352Z,13.44
2023-05-10T23:34:57.358Z,13.43
2023-05-10T23:36:02.518Z,13.44
2023-05-10T23:36:57.321Z,13.41
2023-05-10T23:37:57.289Z,13.41
2023-05-10T23:38:57.330Z,13.43
2023-05-10T23:39:57.294Z,13.41
2023-05-10T23:40:57.461Z,13.41
2023-05-10T23:41:57.260Z,13.44
2023-05-10T23:42:57.246Z,13.43
2023-05-10T23:43:57.266Z,13.43
2023-05-10T23:44:57.258Z,13.41
2023-05-10T23:45:57.357Z,13.41
2023-05-10T23:46:57.237Z,13.41
2023-05-10T23:47:57.273Z,13.39
2023-05-10T23:48:57.223Z,13.41
2023-05-10T23:49:57.198Z,13.38
2023-05-10T23:50:57.184Z,13.41
2023-05-10T23:51:57.160Z,13.39
2023-05-10T23:52:57.191Z,13.39
2023-05-10T23:56:41.948Z,13.43
2023-05-10T23:57:42.949Z,13.39
2023-05-10T23:58:42.919Z,13.38
2023-05-10T23:59:42.890Z,13.39
